Terminal Aerodrome Forecast
Issued by NWS Sterling, VA

Current Version | Previous Version | Graphics & Text | Print | Product List | Glossary On
Versions: 1 2 3 4 5 6 7 8 9 10 11 12 13
000
FTUS41 KLWX 221700
TAFMRB
TAF
KMRB 221739Z 2218/2318 25011KT P6SM SCT050 OVC070
     FM221900 26012KT P6SM VCTS SCT040CB BKN070
     FM222000 28013KT P6SM SCT040 BKN070
     FM222100 29013KT P6SM -SHRA SCT030 BKN070
     FM222300 31012KT P6SM FEW035 SCT080
     FM231200 31018G27KT P6SM BKN200=

USA.gov is the U.S. government's official web portal to all federal, state and local government web resources and services.